sensor_id;sensor_type;location;lat;lon;timestamp;P1;durP1;ratioP1;P2;durP2;ratioP2
26598;SDS011;14240;51.064;16.612;2024-02-16T00:00:10;16.20;;;10.23;;
26598;SDS011;14240;51.064;16.612;2024-02-16T00:02:41;18.17;;;11.02;;
26598;SDS011;14240;51.064;16.612;2024-02-16T00:05:07;16.70;;;10.85;;
26598;SDS011;14240;51.064;16.612;2024-02-16T00:10:02;17.58;;;10.65;;
26598;SDS011;14240;51.064;16.612;2024-02-16T00:12:29;17.00;;;10.70;;
26598;SDS011;14240;51.064;16.612;2024-02-16T00:14:57;18.40;;;11.27;;
26598;SDS011;14240;51.064;16.612;2024-02-16T00:17:23;17.05;;;9.63;;
26598;SDS011;14240;51.064;16.612;2024-02-16T00:19:52;21.13;;;10.30;;
26598;SDS011;14240;51.064;16.612;2024-02-16T00:22:18;20.42;;;10.88;;
26598;SDS011;14240;51.064;16.612;2024-02-16T00:24:43;14.60;;;10.40;;
26598;SDS011;14240;51.064;16.612;2024-02-16T00:27:09;19.48;;;10.63;;
26598;SDS011;14240;51.064;16.612;2024-02-16T00:29:35;19.15;;;10.93;;
26598;SDS011;14240;51.064;16.612;2024-02-16T00:32:03;20.63;;;9.98;;
26598;SDS011;14240;51.064;16.612;2024-02-16T00:36:57;19.40;;;10.93;;
26598;SDS011;14240;51.064;16.612;2024-02-16T00:39:22;19.38;;;10.52;;
26598;SDS011;14240;51.064;16.612;2024-02-16T00:41:49;18.02;;;10.88;;
26598;SDS011;14240;51.064;16.612;2024-02-16T00:44:16;19.85;;;12.05;;
26598;SDS011;14240;51.064;16.612;2024-02-16T00:46:42;18.13;;;10.27;;
26598;SDS011;14240;51.064;16.612;2024-02-16T00:49:11;19.52;;;11.55;;
26598;SDS011;14240;51.064;16.612;2024-02-16T00:51:37;18.60;;;10.88;;
26598;SDS011;14240;51.064;16.612;2024-02-16T00:54:03;20.90;;;11.85;;
26598;SDS011;14240;51.064;16.612;2024-02-16T00:56:29;20.63;;;11.57;;
26598;SDS011;14240;51.064;16.612;2024-02-16T00:58:56;21.33;;;12.43;;
26598;SDS011;14240;51.064;16.612;2024-02-16T01:01:21;22.02;;;12.63;;
26598;SDS011;14240;51.064;16.612;2024-02-16T01:03:48;21.50;;;12.65;;
26598;SDS011;14240;51.064;16.612;2024-02-16T01:06:14;21.42;;;12.82;;
26598;SDS011;14240;51.064;16.612;2024-02-16T01:08:40;24.20;;;12.85;;
26598;SDS011;14240;51.064;16.612;2024-02-16T01:11:06;23.10;;;12.65;;
26598;SDS011;14240;51.064;16.612;2024-02-16T01:13:32;20.83;;;12.98;;
26598;SDS011;14240;51.064;16.612;2024-02-16T01:15:58;21.15;;;12.40;;
26598;SDS011;14240;51.064;16.612;2024-02-16T01:18:25;20.35;;;11.75;;
26598;SDS011;14240;51.064;16.612;2024-02-16T01:20:53;21.45;;;12.63;;
26598;SDS011;14240;51.064;16.612;2024-02-16T01:23:19;22.13;;;12.13;;
26598;SDS011;14240;51.064;16.612;2024-02-16T01:25:45;24.15;;;13.25;;
26598;SDS011;14240;51.064;16.612;2024-02-16T01:28:11;26.25;;;13.85;;
26598;SDS011;14240;51.064;16.612;2024-02-16T01:30:38;23.88;;;13.82;;
26598;SDS011;14240;51.064;16.612;2024-02-16T01:33:04;21.92;;;12.93;;
26598;SDS011;14240;51.064;16.612;2024-02-16T01:35:32;18.73;;;10.93;;
26598;SDS011;14240;51.064;16.612;2024-02-16T01:37:58;16.23;;;10.40;;
26598;SDS011;14240;51.064;16.612;2024-02-16T01:40:23;22.67;;;12.68;;
26598;SDS011;14240;51.064;16.612;2024-02-16T01:42:51;19.02;;;12.20;;
26598;SDS011;14240;51.064;16.612;2024-02-16T01:45:20;21.88;;;11.93;;
26598;SDS011;14240;51.064;16.612;2024-02-16T01:47:47;20.27;;;11.70;;
26598;SDS011;14240;51.064;16.612;2024-02-16T01:50:15;23.13;;;13.18;;
26598;SDS011;14240;51.064;16.612;2024-02-16T01:52:42;21.08;;;12.57;;
26598;SDS011;14240;51.064;16.612;2024-02-16T01:55:09;22.42;;;13.27;;
26598;SDS011;14240;51.064;16.612;2024-02-16T01:57:45;18.30;;;10.88;;
26598;SDS011;14240;51.064;16.612;2024-02-16T02:00:12;19.25;;;11.75;;
26598;SDS011;14240;51.064;16.612;2024-02-16T02:02:40;17.80;;;10.98;;
26598;SDS011;14240;51.064;16.612;2024-02-16T02:05:06;18.65;;;9.95;;
26598;SDS011;14240;51.064;16.612;2024-02-16T02:07:32;15.30;;;8.43;;
26598;SDS011;14240;51.064;16.612;2024-02-16T02:09:58;13.45;;;8.32;;
26598;SDS011;14240;51.064;16.612;2024-02-16T02:12:24;15.23;;;8.10;;
26598;SDS011;14240;51.064;16.612;2024-02-16T02:14:50;13.18;;;8.65;;
26598;SDS011;14240;51.064;16.612;2024-02-16T02:17:16;13.70;;;9.50;;
26598;SDS011;14240;51.064;16.612;2024-02-16T02:22:16;16.42;;;9.07;;
26598;SDS011;14240;51.064;16.612;2024-02-16T02:24:46;17.38;;;8.80;;
26598;SDS011;14240;51.064;16.612;2024-02-16T02:29:40;19.95;;;11.00;;
26598;SDS011;14240;51.064;16.612;2024-02-16T02:32:06;21.48;;;12.38;;
26598;SDS011;14240;51.064;16.612;2024-02-16T02:34:33;19.70;;;11.30;;
26598;SDS011;14240;51.064;16.612;2024-02-16T02:36:59;19.27;;;11.70;;
26598;SDS011;14240;51.064;16.612;2024-02-16T02:39:25;23.15;;;11.88;;
26598;SDS011;14240;51.064;16.612;2024-02-16T02:41:51;22.70;;;12.13;;
26598;SDS011;14240;51.064;16.612;2024-02-16T02:44:17;22.40;;;12.70;;
26598;SDS011;14240;51.064;16.612;2024-02-16T02:46:44;22.15;;;12.32;;
26598;SDS011;14240;51.064;16.612;2024-02-16T02:49:10;20.67;;;12.00;;
26598;SDS011;14240;51.064;16.612;2024-02-16T02:51:36;22.05;;;11.65;;
26598;SDS011;14240;51.064;16.612;2024-02-16T02:54:01;17.48;;;10.68;;
26598;SDS011;14240;51.064;16.612;2024-02-16T02:56:27;14.93;;;9.18;;
26598;SDS011;14240;51.064;16.612;2024-02-16T02:58:53;15.77;;;9.18;;
26598;SDS011;14240;51.064;16.612;2024-02-16T03:01:18;15.85;;;9.25;;
26598;SDS011;14240;51.064;16.612;2024-02-16T03:03:47;13.05;;;8.73;;
26598;SDS011;14240;51.064;16.612;2024-02-16T03:06:17;14.82;;;7.80;;
26598;SDS011;14240;51.064;16.612;2024-02-16T03:08:43;14.52;;;8.10;;
26598;SDS011;14240;51.064;16.612;2024-02-16T03:11:09;14.18;;;8.88;;
26598;SDS011;14240;51.064;16.612;2024-02-16T03:13:35;13.23;;;7.88;;
26598;SDS011;14240;51.064;16.612;2024-02-16T03:16:01;15.40;;;8.60;;
26598;SDS011;14240;51.064;16.612;2024-02-16T03:18:31;14.95;;;8.15;;
26598;SDS011;14240;51.064;16.612;2024-02-16T03:20:57;10.93;;;7.53;;
26598;SDS011;14240;51.064;16.612;2024-02-16T03:23:23;13.73;;;7.72;;
26598;SDS011;14240;51.064;16.612;2024-02-16T03:25:49;12.48;;;7.57;;
26598;SDS011;14240;51.064;16.612;2024-02-16T03:28:15;15.13;;;8.45;;
26598;SDS011;14240;51.064;16.612;2024-02-16T03:30:41;12.20;;;7.85;;
26598;SDS011;14240;51.064;16.612;2024-02-16T03:33:07;12.77;;;7.90;;
26598;SDS011;14240;51.064;16.612;2024-02-16T03:35:33;12.77;;;7.72;;
26598;SDS011;14240;51.064;16.612;2024-02-16T03:37:59;14.18;;;7.18;;
26598;SDS011;14240;51.064;16.612;2024-02-16T03:40:25;14.32;;;8.77;;
26598;SDS011;14240;51.064;16.612;2024-02-16T03:42:51;17.55;;;10.77;;
26598;SDS011;14240;51.064;16.612;2024-02-16T03:45:17;13.30;;;7.47;;
26598;SDS011;14240;51.064;16.612;2024-02-16T03:47:43;12.82;;;7.55;;
26598;SDS011;14240;51.064;16.612;2024-02-16T03:50:09;12.60;;;7.32;;
26598;SDS011;14240;51.064;16.612;2024-02-16T03:52:36;12.70;;;7.73;;
26598;SDS011;14240;51.064;16.612;2024-02-16T03:55:02;15.52;;;8.13;;
26598;SDS011;14240;51.064;16.612;2024-02-16T03:57:29;11.05;;;7.22;;
26598;SDS011;14240;51.064;16.612;2024-02-16T03:59:55;15.80;;;8.10;;
26598;SDS011;14240;51.064;16.612;2024-02-16T04:02:21;16.10;;;8.48;;
26598;SDS011;14240;51.064;16.612;2024-02-16T04:04:47;14.25;;;8.07;;
26598;SDS011;14240;51.064;16.612;2024-02-16T04:07:12;17.75;;;8.93;;
26598;SDS011;14240;51.064;16.612;2024-02-16T04:09:38;17.88;;;9.23;;
26598;SDS011;14240;51.064;16.612;2024-02-16T04:12:04;14.68;;;8.90;;
26598;SDS011;14240;51.064;16.612;2024-02-16T04:14:30;16.92;;;8.73;;
26598;SDS011;14240;51.064;16.612;2024-02-16T04:16:56;16.33;;;9.95;;
26598;SDS011;14240;51.064;16.612;2024-02-16T04:19:25;14.98;;;8.48;;
26598;SDS011;14240;51.064;16.612;2024-02-16T04:21:51;17.23;;;9.70;;
26598;SDS011;14240;51.064;16.612;2024-02-16T04:24:17;16.63;;;9.77;;
26598;SDS011;14240;51.064;16.612;2024-02-16T04:26:43;18.05;;;9.32;;
26598;SDS011;14240;51.064;16.612;2024-02-16T04:29:09;17.45;;;9.55;;
26598;SDS011;14240;51.064;16.612;2024-02-16T04:31:38;15.02;;;9.45;;
26598;SDS011;14240;51.064;16.612;2024-02-16T04:34:05;15.90;;;9.02;;
26598;SDS011;14240;51.064;16.612;2024-02-16T04:36:31;18.52;;;10.05;;
26598;SDS011;14240;51.064;16.612;2024-02-16T04:38:56;20.02;;;9.57;;
26598;SDS011;14240;51.064;16.612;2024-02-16T04:41:22;18.33;;;9.57;;
26598;SDS011;14240;51.064;16.612;2024-02-16T04:43:48;17.38;;;9.90;;
26598;SDS011;14240;51.064;16.612;2024-02-16T04:46:17;19.92;;;10.40;;
26598;SDS011;14240;51.064;16.612;2024-02-16T04:48:42;19.80;;;10.52;;
26598;SDS011;14240;51.064;16.612;2024-02-16T04:51:08;19.75;;;10.35;;
26598;SDS011;14240;51.064;16.612;2024-02-16T04:53:35;20.27;;;10.47;;
26598;SDS011;14240;51.064;16.612;2024-02-16T04:56:01;21.42;;;11.77;;
26598;SDS011;14240;51.064;16.612;2024-02-16T04:58:27;21.05;;;11.45;;
26598;SDS011;14240;51.064;16.612;2024-02-16T05:00:53;22.45;;;12.02;;
26598;SDS011;14240;51.064;16.612;2024-02-16T05:03:19;19.30;;;11.23;;
26598;SDS011;14240;51.064;16.612;2024-02-16T05:05:45;22.98;;;11.85;;
26598;SDS011;14240;51.064;16.612;2024-02-16T05:08:11;20.48;;;11.77;;
26598;SDS011;14240;51.064;16.612;2024-02-16T05:10:37;20.98;;;11.00;;
26598;SDS011;14240;51.064;16.612;2024-02-16T05:13:03;20.33;;;10.80;;
26598;SDS011;14240;51.064;16.612;2024-02-16T05:15:29;21.70;;;11.85;;
26598;SDS011;14240;51.064;16.612;2024-02-16T05:17:55;20.38;;;11.43;;
26598;SDS011;14240;51.064;16.612;2024-02-16T05:20:20;26.23;;;13.07;;
26598;SDS011;14240;51.064;16.612;2024-02-16T05:22:46;23.55;;;12.07;;
26598;SDS011;14240;51.064;16.612;2024-02-16T05:25:14;25.75;;;11.77;;
26598;SDS011;14240;51.064;16.612;2024-02-16T05:27:43;25.02;;;12.52;;
26598;SDS011;14240;51.064;16.612;2024-02-16T05:30:09;23.25;;;12.77;;
26598;SDS011;14240;51.064;16.612;2024-02-16T05:32:39;25.15;;;12.18;;
26598;SDS011;14240;51.064;16.612;2024-02-16T05:35:05;21.83;;;11.68;;
26598;SDS011;14240;51.064;16.612;2024-02-16T05:37:46;21.90;;;12.40;;
26598;SDS011;14240;51.064;16.612;2024-02-16T05:40:18;22.00;;;11.80;;
26598;SDS011;14240;51.064;16.612;2024-02-16T05:42:47;24.35;;;13.30;;
26598;SDS011;14240;51.064;16.612;2024-02-16T05:45:14;23.42;;;11.85;;
26598;SDS011;14240;51.064;16.612;2024-02-16T05:47:44;24.92;;;13.57;;
26598;SDS011;14240;51.064;16.612;2024-02-16T05:50:10;23.30;;;12.60;;
26598;SDS011;14240;51.064;16.612;2024-02-16T05:52:37;27.25;;;12.02;;
26598;SDS011;14240;51.064;16.612;2024-02-16T05:55:04;22.38;;;11.88;;
26598;SDS011;14240;51.064;16.612;2024-02-16T05:57:31;26.30;;;13.10;;
26598;SDS011;14240;51.064;16.612;2024-02-16T05:59:57;26.98;;;12.40;;
26598;SDS011;14240;51.064;16.612;2024-02-16T06:02:23;27.20;;;12.73;;
26598;SDS011;14240;51.064;16.612;2024-02-16T06:04:51;31.80;;;13.93;;
26598;SDS011;14240;51.064;16.612;2024-02-16T06:07:17;29.60;;;13.88;;
26598;SDS011;14240;51.064;16.612;2024-02-16T06:09:43;31.20;;;14.57;;
26598;SDS011;14240;51.064;16.612;2024-02-16T06:12:09;27.83;;;13.10;;
26598;SDS011;14240;51.064;16.612;2024-02-16T06:14:35;27.00;;;13.90;;
26598;SDS011;14240;51.064;16.612;2024-02-16T06:17:01;26.10;;;13.77;;
26598;SDS011;14240;51.064;16.612;2024-02-16T06:19:28;24.83;;;13.30;;
26598;SDS011;14240;51.064;16.612;2024-02-16T06:21:54;29.52;;;14.63;;
26598;SDS011;14240;51.064;16.612;2024-02-16T06:24:20;31.75;;;14.15;;
26598;SDS011;14240;51.064;16.612;2024-02-16T06:26:47;30.08;;;14.13;;
26598;SDS011;14240;51.064;16.612;2024-02-16T06:29:14;27.27;;;13.33;;
26598;SDS011;14240;51.064;16.612;2024-02-16T06:31:39;26.42;;;13.07;;
26598;SDS011;14240;51.064;16.612;2024-02-16T06:34:05;30.73;;;13.48;;
26598;SDS011;14240;51.064;16.612;2024-02-16T06:36:31;31.70;;;14.32;;
26598;SDS011;14240;51.064;16.612;2024-02-16T06:38:56;34.80;;;14.65;;
26598;SDS011;14240;51.064;16.612;2024-02-16T06:41:22;30.25;;;13.40;;
26598;SDS011;14240;51.064;16.612;2024-02-16T06:43:48;23.90;;;12.90;;
26598;SDS011;14240;51.064;16.612;2024-02-16T06:46:14;27.77;;;13.90;;
26598;SDS011;14240;51.064;16.612;2024-02-16T06:48:40;24.00;;;13.30;;
26598;SDS011;14240;51.064;16.612;2024-02-16T06:51:05;25.30;;;13.52;;
26598;SDS011;14240;51.064;16.612;2024-02-16T06:53:32;25.45;;;14.15;;
26598;SDS011;14240;51.064;16.612;2024-02-16T06:55:57;25.60;;;13.27;;
26598;SDS011;14240;51.064;16.612;2024-02-16T06:58:23;24.58;;;12.68;;
26598;SDS011;14240;51.064;16.612;2024-02-16T07:00:49;38.70;;;20.33;;
26598;SDS011;14240;51.064;16.612;2024-02-16T07:03:15;23.88;;;12.98;;
26598;SDS011;14240;51.064;16.612;2024-02-16T07:05:41;35.60;;;18.00;;
26598;SDS011;14240;51.064;16.612;2024-02-16T07:08:06;25.95;;;12.23;;
26598;SDS011;14240;51.064;16.612;2024-02-16T07:10:32;21.23;;;11.63;;
26598;SDS011;14240;51.064;16.612;2024-02-16T07:12:59;23.60;;;12.35;;
26598;SDS011;14240;51.064;16.612;2024-02-16T07:15:25;21.85;;;12.23;;
26598;SDS011;14240;51.064;16.612;2024-02-16T07:17:52;21.40;;;11.25;;
26598;SDS011;14240;51.064;16.612;2024-02-16T07:20:18;18.55;;;10.07;;
26598;SDS011;14240;51.064;16.612;2024-02-16T07:22:44;20.80;;;11.05;;
26598;SDS011;14240;51.064;16.612;2024-02-16T07:25:12;16.77;;;10.48;;
26598;SDS011;14240;51.064;16.612;2024-02-16T07:27:38;19.75;;;10.05;;
26598;SDS011;14240;51.064;16.612;2024-02-16T07:30:04;19.45;;;11.27;;
26598;SDS011;14240;51.064;16.612;2024-02-16T07:32:30;16.83;;;10.50;;
26598;SDS011;14240;51.064;16.612;2024-02-16T07:34:56;17.35;;;10.90;;
26598;SDS011;14240;51.064;16.612;2024-02-16T07:37:22;21.58;;;11.88;;
26598;SDS011;14240;51.064;16.612;2024-02-16T07:39:47;15.38;;;10.00;;
26598;SDS011;14240;51.064;16.612;2024-02-16T07:42:13;29.85;;;11.75;;
26598;SDS011;14240;51.064;16.612;2024-02-16T07:44:39;16.10;;;10.40;;
26598;SDS011;14240;51.064;16.612;2024-02-16T07:47:05;18.00;;;10.35;;
26598;SDS011;14240;51.064;16.612;2024-02-16T07:49:31;19.90;;;10.77;;
26598;SDS011;14240;51.064;16.612;2024-02-16T07:51:56;19.02;;;9.77;;
26598;SDS011;14240;51.064;16.612;2024-02-16T07:54:22;18.30;;;10.15;;
26598;SDS011;14240;51.064;16.612;2024-02-16T07:56:48;16.23;;;10.73;;
26598;SDS011;14240;51.064;16.612;2024-02-16T07:59:14;16.33;;;10.27;;
26598;SDS011;14240;51.064;16.612;2024-02-16T08:01:40;15.88;;;10.50;;
26598;SDS011;14240;51.064;16.612;2024-02-16T08:04:09;17.30;;;9.98;;
26598;SDS011;14240;51.064;16.612;2024-02-16T08:06:35;14.27;;;9.15;;
26598;SDS011;14240;51.064;16.612;2024-02-16T08:09:00;11.77;;;6.70;;
26598;SDS011;14240;51.064;16.612;2024-02-16T08:11:27;12.60;;;8.25;;
26598;SDS011;14240;51.064;16.612;2024-02-16T08:13:53;12.52;;;7.93;;
26598;SDS011;14240;51.064;16.612;2024-02-16T08:16:20;15.43;;;7.68;;
26598;SDS011;14240;51.064;16.612;2024-02-16T08:18:46;13.52;;;8.93;;
26598;SDS011;14240;51.064;16.612;2024-02-16T08:21:12;14.52;;;9.52;;
26598;SDS011;14240;51.064;16.612;2024-02-16T08:23:37;17.65;;;10.63;;
26598;SDS011;14240;51.064;16.612;2024-02-16T08:26:03;17.30;;;11.73;;
26598;SDS011;14240;51.064;16.612;2024-02-16T08:28:29;17.10;;;10.45;;
26598;SDS011;14240;51.064;16.612;2024-02-16T08:30:55;18.55;;;10.43;;
26598;SDS011;14240;51.064;16.612;2024-02-16T08:33:20;17.20;;;11.65;;
26598;SDS011;14240;51.064;16.612;2024-02-16T08:35:46;22.63;;;11.48;;
26598;SDS011;14240;51.064;16.612;2024-02-16T08:38:12;15.50;;;10.15;;
26598;SDS011;14240;51.064;16.612;2024-02-16T08:40:38;20.08;;;10.55;;
26598;SDS011;14240;51.064;16.612;2024-02-16T08:43:05;16.93;;;10.17;;
26598;SDS011;14240;51.064;16.612;2024-02-16T08:45:32;15.82;;;10.77;;
26598;SDS011;14240;51.064;16.612;2024-02-16T08:47:59;21.65;;;10.60;;
26598;SDS011;14240;51.064;16.612;2024-02-16T08:50:26;17.08;;;10.05;;
26598;SDS011;14240;51.064;16.612;2024-02-16T08:52:52;16.63;;;9.93;;
26598;SDS011;14240;51.064;16.612;2024-02-16T08:55:19;15.45;;;9.45;;
26598;SDS011;14240;51.064;16.612;2024-02-16T08:57:45;14.50;;;9.65;;
26598;SDS011;14240;51.064;16.612;2024-02-16T09:00:11;16.75;;;10.13;;
26598;SDS011;14240;51.064;16.612;2024-02-16T09:02:37;19.02;;;10.20;;
26598;SDS011;14240;51.064;16.612;2024-02-16T09:05:04;19.30;;;9.45;;
26598;SDS011;14240;51.064;16.612;2024-02-16T09:07:30;13.68;;;7.65;;
26598;SDS011;14240;51.064;16.612;2024-02-16T09:09:55;14.55;;;8.13;;
26598;SDS011;14240;51.064;16.612;2024-02-16T09:12:22;15.05;;;8.00;;
26598;SDS011;14240;51.064;16.612;2024-02-16T09:14:48;16.67;;;9.27;;
26598;SDS011;14240;51.064;16.612;2024-02-16T09:17:13;13.82;;;8.50;;
26598;SDS011;14240;51.064;16.612;2024-02-16T09:19:39;13.18;;;7.82;;
26598;SDS011;14240;51.064;16.612;2024-02-16T09:22:05;15.13;;;7.82;;
26598;SDS011;14240;51.064;16.612;2024-02-16T09:24:31;11.55;;;6.90;;
26598;SDS011;14240;51.064;16.612;2024-02-16T09:26:57;11.35;;;7.35;;
26598;SDS011;14240;51.064;16.612;2024-02-16T09:29:28;11.63;;;7.20;;
26598;SDS011;14240;51.064;16.612;2024-02-16T09:31:54;12.15;;;6.68;;
26598;SDS011;14240;51.064;16.612;2024-02-16T09:34:19;14.10;;;7.85;;
26598;SDS011;14240;51.064;16.612;2024-02-16T09:36:45;12.13;;;7.32;;
26598;SDS011;14240;51.064;16.612;2024-02-16T09:39:11;13.30;;;7.13;;
26598;SDS011;14240;51.064;16.612;2024-02-16T09:41:37;9.65;;;6.78;;
26598;SDS011;14240;51.064;16.612;2024-02-16T09:44:08;17.13;;;10.52;;
26598;SDS011;14240;51.064;16.612;2024-02-16T09:46:35;23.48;;;13.77;;
26598;SDS011;14240;51.064;16.612;2024-02-16T09:49:01;12.57;;;7.60;;
26598;SDS011;14240;51.064;16.612;2024-02-16T09:51:31;17.45;;;10.57;;
26598;SDS011;14240;51.064;16.612;2024-02-16T09:54:00;26.42;;;15.93;;
26598;SDS011;14240;51.064;16.612;2024-02-16T09:56:26;25.02;;;14.23;;
26598;SDS011;14240;51.064;16.612;2024-02-16T09:58:52;39.20;;;21.83;;
26598;SDS011;14240;51.064;16.612;2024-02-16T10:01:20;33.50;;;20.40;;
26598;SDS011;14240;51.064;16.612;2024-02-16T10:03:47;19.85;;;10.45;;
26598;SDS011;14240;51.064;16.612;2024-02-16T10:06:14;9.43;;;6.90;;
26598;SDS011;14240;51.064;16.612;2024-02-16T10:08:51;9.48;;;6.20;;
26598;SDS011;14240;51.064;16.612;2024-02-16T10:11:18;8.90;;;5.65;;
26598;SDS011;14240;51.064;16.612;2024-02-16T10:13:57;6.93;;;5.47;;
26598;SDS011;14240;51.064;16.612;2024-02-16T10:16:23;8.43;;;5.60;;
26598;SDS011;14240;51.064;16.612;2024-02-16T10:18:49;10.52;;;5.10;;
26598;SDS011;14240;51.064;16.612;2024-02-16T10:21:26;8.73;;;4.97;;
26598;SDS011;14240;51.064;16.612;2024-02-16T10:26:35;8.93;;;6.00;;
26598;SDS011;14240;51.064;16.612;2024-02-16T10:29:14;9.88;;;5.40;;
26598;SDS011;14240;51.064;16.612;2024-02-16T10:31:44;6.68;;;5.43;;
26598;SDS011;14240;51.064;16.612;2024-02-16T10:34:10;8.73;;;6.13;;
26598;SDS011;14240;51.064;16.612;2024-02-16T10:36:37;7.72;;;6.07;;
26598;SDS011;14240;51.064;16.612;2024-02-16T10:39:03;10.52;;;5.78;;
26598;SDS011;14240;51.064;16.612;2024-02-16T10:41:34;16.80;;;6.50;;
26598;SDS011;14240;51.064;16.612;2024-02-16T10:44:05;9.52;;;5.07;;
26598;SDS011;14240;51.064;16.612;2024-02-16T10:46:31;10.23;;;5.70;;
26598;SDS011;14240;51.064;16.612;2024-02-16T10:48:57;9.07;;;5.80;;
26598;SDS011;14240;51.064;16.612;2024-02-16T10:51:46;9.93;;;5.35;;
26598;SDS011;14240;51.064;16.612;2024-02-16T10:54:19;11.80;;;5.20;;
26598;SDS011;14240;51.064;16.612;2024-02-16T10:56:47;10.20;;;4.80;;
26598;SDS011;14240;51.064;16.612;2024-02-16T10:59:13;8.57;;;5.07;;
26598;SDS011;14240;51.064;16.612;2024-02-16T11:01:42;12.68;;;5.55;;
26598;SDS011;14240;51.064;16.612;2024-02-16T11:06:46;9.85;;;5.60;;
26598;SDS011;14240;51.064;16.612;2024-02-16T11:11:53;8.50;;;4.70;;
26598;SDS011;14240;51.064;16.612;2024-02-16T11:14:21;12.37;;;6.43;;
26598;SDS011;14240;51.064;16.612;2024-02-16T11:16:48;7.78;;;5.22;;
26598;SDS011;14240;51.064;16.612;2024-02-16T11:19:14;8.60;;;4.80;;
26598;SDS011;14240;51.064;16.612;2024-02-16T11:21:54;9.40;;;4.80;;
26598;SDS011;14240;51.064;16.612;2024-02-16T11:24:36;9.32;;;5.88;;
26598;SDS011;14240;51.064;16.612;2024-02-16T11:27:05;10.57;;;5.43;;
26598;SDS011;14240;51.064;16.612;2024-02-16T11:29:33;9.60;;;5.13;;
26598;SDS011;14240;51.064;16.612;2024-02-16T11:32:03;10.57;;;5.75;;
26598;SDS011;14240;51.064;16.612;2024-02-16T11:34:29;7.20;;;4.68;;
26598;SDS011;14240;51.064;16.612;2024-02-16T11:36:56;8.95;;;5.70;;
26598;SDS011;14240;51.064;16.612;2024-02-16T11:39:22;13.18;;;8.18;;
26598;SDS011;14240;51.064;16.612;2024-02-16T11:42:03;9.68;;;4.60;;
26598;SDS011;14240;51.064;16.612;2024-02-16T11:44:31;6.03;;;4.38;;
26598;SDS011;14240;51.064;16.612;2024-02-16T11:46:58;12.27;;;6.75;;
26598;SDS011;14240;51.064;16.612;2024-02-16T11:49:24;8.75;;;4.93;;
26598;SDS011;14240;51.064;16.612;2024-02-16T11:51:50;11.60;;;5.88;;
26598;SDS011;14240;51.064;16.612;2024-02-16T11:54:17;11.85;;;6.03;;
26598;SDS011;14240;51.064;16.612;2024-02-16T11:56:44;11.20;;;4.97;;
26598;SDS011;14240;51.064;16.612;2024-02-16T11:59:13;8.55;;;5.05;;
26598;SDS011;14240;51.064;16.612;2024-02-16T12:01:53;13.75;;;6.03;;
26598;SDS011;14240;51.064;16.612;2024-02-16T12:04:20;13.98;;;6.53;;
26598;SDS011;14240;51.064;16.612;2024-02-16T12:07:00;9.93;;;6.50;;
26598;SDS011;14240;51.064;16.612;2024-02-16T12:09:26;8.48;;;6.05;;
26598;SDS011;14240;51.064;16.612;2024-02-16T12:11:53;11.55;;;6.68;;
26598;SDS011;14240;51.064;16.612;2024-02-16T12:14:23;9.48;;;6.30;;
26598;SDS011;14240;51.064;16.612;2024-02-16T12:16:50;20.75;;;10.90;;
26598;SDS011;14240;51.064;16.612;2024-02-16T12:19:20;19.95;;;10.65;;
26598;SDS011;14240;51.064;16.612;2024-02-16T12:21:54;12.18;;;6.85;;
26598;SDS011;14240;51.064;16.612;2024-02-16T12:24:23;17.02;;;8.52;;
26598;SDS011;14240;51.064;16.612;2024-02-16T12:26:49;14.18;;;8.35;;
26598;SDS011;14240;51.064;16.612;2024-02-16T12:29:16;10.77;;;6.50;;
26598;SDS011;14240;51.064;16.612;2024-02-16T12:31:42;8.40;;;5.95;;
26598;SDS011;14240;51.064;16.612;2024-02-16T12:34:09;13.30;;;6.53;;
26598;SDS011;14240;51.064;16.612;2024-02-16T12:36:39;12.20;;;6.63;;
26598;SDS011;14240;51.064;16.612;2024-02-16T12:39:08;14.70;;;6.45;;
26598;SDS011;14240;51.064;16.612;2024-02-16T12:41:37;12.40;;;6.20;;
26598;SDS011;14240;51.064;16.612;2024-02-16T12:44:06;9.07;;;6.25;;
26598;SDS011;14240;51.064;16.612;2024-02-16T12:46:32;8.77;;;5.68;;
26598;SDS011;14240;51.064;16.612;2024-02-16T12:48:57;12.32;;;6.40;;
26598;SDS011;14240;51.064;16.612;2024-02-16T12:51:23;9.98;;;5.57;;
26598;SDS011;14240;51.064;16.612;2024-02-16T12:53:49;10.02;;;6.45;;
26598;SDS011;14240;51.064;16.612;2024-02-16T12:56:15;11.82;;;6.10;;
26598;SDS011;14240;51.064;16.612;2024-02-16T12:58:40;8.35;;;5.10;;
26598;SDS011;14240;51.064;16.612;2024-02-16T13:01:06;11.48;;;6.93;;
26598;SDS011;14240;51.064;16.612;2024-02-16T13:03:33;10.02;;;5.82;;
26598;SDS011;14240;51.064;16.612;2024-02-16T13:06:00;15.65;;;7.32;;
26598;SDS011;14240;51.064;16.612;2024-02-16T13:08:26;13.27;;;7.78;;
26598;SDS011;14240;51.064;16.612;2024-02-16T13:10:53;10.52;;;6.72;;
26598;SDS011;14240;51.064;16.612;2024-02-16T13:13:19;9.52;;;6.43;;
26598;SDS011;14240;51.064;16.612;2024-02-16T13:15:45;11.10;;;6.97;;
26598;SDS011;14240;51.064;16.612;2024-02-16T13:18:12;12.77;;;6.22;;
26598;SDS011;14240;51.064;16.612;2024-02-16T13:20:38;10.90;;;6.43;;
26598;SDS011;14240;51.064;16.612;2024-02-16T13:23:04;11.68;;;6.18;;
26598;SDS011;14240;51.064;16.612;2024-02-16T13:25:30;8.63;;;5.15;;
26598;SDS011;14240;51.064;16.612;2024-02-16T13:27:56;11.02;;;6.97;;
26598;SDS011;14240;51.064;16.612;2024-02-16T13:30:21;10.40;;;6.47;;
26598;SDS011;14240;51.064;16.612;2024-02-16T13:32:47;11.60;;;5.85;;
26598;SDS011;14240;51.064;16.612;2024-02-16T13:35:13;12.30;;;6.80;;
26598;SDS011;14240;51.064;16.612;2024-02-16T13:37:39;9.30;;;5.50;;
26598;SDS011;14240;51.064;16.612;2024-02-16T13:40:08;11.32;;;5.35;;
26598;SDS011;14240;51.064;16.612;2024-02-16T13:42:38;9.00;;;5.15;;
26598;SDS011;14240;51.064;16.612;2024-02-16T13:45:04;14.15;;;6.60;;
26598;SDS011;14240;51.064;16.612;2024-02-16T13:47:30;9.02;;;6.07;;
26598;SDS011;14240;51.064;16.612;2024-02-16T13:49:56;10.40;;;6.70;;
26598;SDS011;14240;51.064;16.612;2024-02-16T13:52:22;16.08;;;7.90;;
26598;SDS011;14240;51.064;16.612;2024-02-16T13:54:49;11.43;;;7.20;;
26598;SDS011;14240;51.064;16.612;2024-02-16T13:57:15;12.70;;;7.95;;
26598;SDS011;14240;51.064;16.612;2024-02-16T13:59:41;10.40;;;6.40;;
26598;SDS011;14240;51.064;16.612;2024-02-16T14:02:07;10.70;;;6.45;;
26598;SDS011;14240;51.064;16.612;2024-02-16T14:04:34;13.10;;;7.88;;
26598;SDS011;14240;51.064;16.612;2024-02-16T14:07:01;14.65;;;8.80;;
26598;SDS011;14240;51.064;16.612;2024-02-16T14:09:26;20.17;;;11.13;;
26598;SDS011;14240;51.064;16.612;2024-02-16T14:11:52;18.30;;;10.07;;
26598;SDS011;14240;51.064;16.612;2024-02-16T14:14:24;19.45;;;10.27;;
26598;SDS011;14240;51.064;16.612;2024-02-16T14:16:50;20.10;;;11.52;;
26598;SDS011;14240;51.064;16.612;2024-02-16T14:19:15;20.50;;;10.27;;
26598;SDS011;14240;51.064;16.612;2024-02-16T14:21:42;14.95;;;7.82;;
26598;SDS011;14240;51.064;16.612;2024-02-16T14:24:08;11.85;;;6.75;;
26598;SDS011;14240;51.064;16.612;2024-02-16T14:26:36;12.35;;;7.00;;
26598;SDS011;14240;51.064;16.612;2024-02-16T14:29:02;12.63;;;7.80;;
26598;SDS011;14240;51.064;16.612;2024-02-16T14:31:29;15.25;;;7.43;;